sensor_id;sensor_type;location;lat;lon;timestamp;temperature;humidity
14014;DHT22;49110;52.584;13.408;2023-02-02T00:00:29;5.70;99.90
14014;DHT22;49110;52.584;13.408;2023-02-02T00:01:31;5.70;99.90
14014;DHT22;49110;52.584;13.408;2023-02-02T00:02:31;5.70;99.90
14014;DHT22;49110;52.584;13.408;2023-02-02T00:03:32;5.70;99.90
14014;DHT22;49110;52.584;13.408;2023-02-02T00:04:35;5.70;99.90
14014;DHT22;49110;52.584;13.408;2023-02-02T00:05:36;5.70;99.90
14014;DHT22;49110;52.584;13.408;2023-02-02T00:06:36;5.70;99.90
14014;DHT22;49110;52.584;13.408;2023-02-02T00:07:37;5.80;99.90
14014;DHT22;49110;52.584;13.408;2023-02-02T00:08:37;5.80;99.90
14014;DHT22;49110;52.584;13.408;2023-02-02T00:09:38;5.70;99.90
14014;DHT22;49110;52.584;13.408;2023-02-02T00:10:39;5.70;99.90
14014;DHT22;49110;52.584;13.408;2023-02-02T00:11:40;5.70;99.90
14014;DHT22;49110;52.584;13.408;2023-02-02T00:12:41;5.80;99.90
14014;DHT22;49110;52.584;13.408;2023-02-02T00:13:41;5.80;99.90
14014;DHT22;49110;52.584;13.408;2023-02-02T00:14:42;5.70;99.90
14014;DHT22;49110;52.584;13.408;2023-02-02T00:15:43;5.80;99.90
14014;DHT22;49110;52.584;13.408;2023-02-02T00:16:46;5.80;99.90
14014;DHT22;49110;52.584;13.408;2023-02-02T00:17:47;5.80;99.90
14014;DHT22;49110;52.584;13.408;2023-02-02T00:18:48;5.80;99.90
14014;DHT22;49110;52.584;13.408;2023-02-02T00:19:48;5.80;99.90
14014;DHT22;49110;52.584;13.408;2023-02-02T00:20:49;5.80;99.90
14014;DHT22;49110;52.584;13.408;2023-02-02T00:21:49;5.80;99.90
14014;DHT22;49110;52.584;13.408;2023-02-02T00:22:50;5.80;99.90
14014;DHT22;49110;52.584;13.408;2023-02-02T00:23:51;5.80;99.90
14014;DHT22;49110;52.584;13.408;2023-02-02T00:24:51;5.80;99.90
14014;DHT22;49110;52.584;13.408;2023-02-02T00:25:52;5.80;99.90
14014;DHT22;49110;52.584;13.408;2023-02-02T00:26:55;5.90;99.90
14014;DHT22;49110;52.584;13.408;2023-02-02T00:27:56;5.90;99.90
14014;DHT22;49110;52.584;13.408;2023-02-02T00:28:57;5.90;99.90
14014;DHT22;49110;52.584;13.408;2023-02-02T00:29:57;5.90;99.90
14014;DHT22;49110;52.584;13.408;2023-02-02T00:30:58;5.90;99.90
14014;DHT22;49110;52.584;13.408;2023-02-02T00:32:01;5.90;99.90
14014;DHT22;49110;52.584;13.408;2023-02-02T00:33:02;5.90;99.90
14014;DHT22;49110;52.584;13.408;2023-02-02T00:34:02;5.90;99.90
14014;DHT22;49110;52.584;13.408;2023-02-02T00:35:03;5.90;99.90
14014;DHT22;49110;52.584;13.408;2023-02-02T00:36:04;5.90;99.90
14014;DHT22;49110;52.584;13.408;2023-02-02T00:37:07;5.90;99.90
14014;DHT22;49110;52.584;13.408;2023-02-02T00:38:11;5.90;99.90
14014;DHT22;49110;52.584;13.408;2023-02-02T05:04:15;6.40;99.90
14014;DHT22;49110;52.584;13.408;2023-02-02T05:05:16;6.40;99.90
14014;DHT22;49110;52.584;13.408;2023-02-02T05:06:17;6.40;99.90
14014;DHT22;49110;52.584;13.408;2023-02-02T05:07:18;6.40;99.90
14014;DHT22;49110;52.584;13.408;2023-02-02T05:08:19;6.40;99.90
14014;DHT22;49110;52.584;13.408;2023-02-02T05:09:19;6.40;99.90
14014;DHT22;49110;52.584;13.408;2023-02-02T05:10:20;6.40;99.90
14014;DHT22;49110;52.584;13.408;2023-02-02T05:11:22;6.40;99.90
14014;DHT22;49110;52.584;13.408;2023-02-02T05:12:22;6.40;99.90
14014;DHT22;49110;52.584;13.408;2023-02-02T05:13:23;6.40;99.90
14014;DHT22;49110;52.584;13.408;2023-02-02T05:14:23;6.40;99.90
14014;DHT22;49110;52.584;13.408;2023-02-02T05:15:25;6.40;99.90
14014;DHT22;49110;52.584;13.408;2023-02-02T05:16:25;6.40;99.90
14014;DHT22;49110;52.584;13.408;2023-02-02T05:17:26;6.40;99.90
14014;DHT22;49110;52.584;13.408;2023-02-02T05:18:27;6.40;99.90
14014;DHT22;49110;52.584;13.408;2023-02-02T05:19:28;6.40;99.90
14014;DHT22;49110;52.584;13.408;2023-02-02T05:20:28;6.40;99.90
14014;DHT22;49110;52.584;13.408;2023-02-02T05:21:29;6.50;99.90
14014;DHT22;49110;52.584;13.408;2023-02-02T05:22:29;6.40;99.90
14014;DHT22;49110;52.584;13.408;2023-02-02T05:23:30;6.40;99.90
14014;DHT22;49110;52.584;13.408;2023-02-02T05:24:30;6.40;99.90
14014;DHT22;49110;52.584;13.408;2023-02-02T05:25:31;6.40;99.90
14014;DHT22;49110;52.584;13.408;2023-02-02T05:26:31;6.40;99.90
14014;DHT22;49110;52.584;13.408;2023-02-02T05:27:32;6.40;99.90
14014;DHT22;49110;52.584;13.408;2023-02-02T05:28:32;6.40;99.90
14014;DHT22;49110;52.584;13.408;2023-02-02T05:29:34;6.40;99.90
14014;DHT22;49110;52.584;13.408;2023-02-02T05:30:38;6.40;99.90
14014;DHT22;49110;52.584;13.408;2023-02-02T05:31:38;6.40;99.90
14014;DHT22;49110;52.584;13.408;2023-02-02T05:32:39;6.40;99.90
14014;DHT22;49110;52.584;13.408;2023-02-02T05:33:40;6.50;99.90
14014;DHT22;49110;52.584;13.408;2023-02-02T05:34:40;6.40;99.90
14014;DHT22;49110;52.584;13.408;2023-02-02T05:35:41;6.40;99.90
14014;DHT22;49110;52.584;13.408;2023-02-02T05:36:43;6.40;99.90
14014;DHT22;49110;52.584;13.408;2023-02-02T05:37:44;6.40;99.90
14014;DHT22;49110;52.584;13.408;2023-02-02T05:38:44;6.40;99.90
14014;DHT22;49110;52.584;13.408;2023-02-02T05:39:45;6.40;99.90
14014;DHT22;49110;52.584;13.408;2023-02-02T05:40:47;6.40;99.90
14014;DHT22;49110;52.584;13.408;2023-02-02T05:41:48;6.40;99.90
14014;DHT22;49110;52.584;13.408;2023-02-02T05:42:48;6.40;99.90
14014;DHT22;49110;52.584;13.408;2023-02-02T05:43:49;6.40;99.90
14014;DHT22;49110;52.584;13.408;2023-02-02T05:44:49;6.40;99.90
14014;DHT22;49110;52.584;13.408;2023-02-02T05:45:49;6.40;99.90
14014;DHT22;49110;52.584;13.408;2023-02-02T05:46:50;6.40;99.90
14014;DHT22;49110;52.584;13.408;2023-02-02T05:47:53;6.40;99.90
14014;DHT22;49110;52.584;13.408;2023-02-02T05:48:54;6.40;99.90
14014;DHT22;49110;52.584;13.408;2023-02-02T05:49:58;6.40;99.90
14014;DHT22;49110;52.584;13.408;2023-02-02T05:51:08;6.40;99.90
14014;DHT22;49110;52.584;13.408;2023-02-02T05:52:15;6.40;99.90
14014;DHT22;49110;52.584;13.408;2023-02-02T05:53:17;6.50;99.90
14014;DHT22;49110;52.584;13.408;2023-02-02T05:54:17;6.40;99.90
14014;DHT22;49110;52.584;13.408;2023-02-02T05:55:19;6.50;99.90
14014;DHT22;49110;52.584;13.408;2023-02-02T05:56:20;6.40;99.90
14014;DHT22;49110;52.584;13.408;2023-02-02T05:57:20;6.40;99.90
14014;DHT22;49110;52.584;13.408;2023-02-02T05:58:21;6.40;99.90
14014;DHT22;49110;52.584;13.408;2023-02-02T05:59:21;6.40;99.90
14014;DHT22;49110;52.584;13.408;2023-02-02T06:00:22;6.40;99.90
14014;DHT22;49110;52.584;13.408;2023-02-02T06:01:22;6.40;99.90
14014;DHT22;49110;52.584;13.408;2023-02-02T06:02:23;6.40;99.90
14014;DHT22;49110;52.584;13.408;2023-02-02T06:03:24;6.40;99.90
14014;DHT22;49110;52.584;13.408;2023-02-02T06:04:24;6.50;99.90
14014;DHT22;49110;52.584;13.408;2023-02-02T06:05:25;6.50;99.90
14014;DHT22;49110;52.584;13.408;2023-02-02T06:06:25;6.50;99.90
14014;DHT22;49110;52.584;13.408;2023-02-02T06:07:26;6.50;99.90
14014;DHT22;49110;52.584;13.408;2023-02-02T06:08:26;6.40;99.90
14014;DHT22;49110;52.584;13.408;2023-02-02T06:09:27;6.50;99.90
14014;DHT22;49110;52.584;13.408;2023-02-02T06:10:27;6.40;99.90
14014;DHT22;49110;52.584;13.408;2023-02-02T06:11:28;6.50;99.90
14014;DHT22;49110;52.584;13.408;2023-02-02T06:12:28;6.50;99.90
14014;DHT22;49110;52.584;13.408;2023-02-02T06:13:28;6.40;99.90
14014;DHT22;49110;52.584;13.408;2023-02-02T06:14:29;6.40;99.90
14014;DHT22;49110;52.584;13.408;2023-02-02T06:15:30;6.40;99.90
14014;DHT22;49110;52.584;13.408;2023-02-02T06:16:32;6.40;99.90
14014;DHT22;49110;52.584;13.408;2023-02-02T06:17:32;6.40;99.90
14014;DHT22;49110;52.584;13.408;2023-02-02T06:18:34;6.50;99.90
14014;DHT22;49110;52.584;13.408;2023-02-02T06:19:34;6.50;99.90
14014;DHT22;49110;52.584;13.408;2023-02-02T06:20:36;6.40;99.90
14014;DHT22;49110;52.584;13.408;2023-02-02T06:21:36;6.40;99.90
14014;DHT22;49110;52.584;13.408;2023-02-02T06:22:37;6.40;99.90
14014;DHT22;49110;52.584;13.408;2023-02-02T06:23:37;6.40;99.90
14014;DHT22;49110;52.584;13.408;2023-02-02T06:24:37;6.40;99.90
14014;DHT22;49110;52.584;13.408;2023-02-02T06:25:38;6.40;99.90
14014;DHT22;49110;52.584;13.408;2023-02-02T06:26:38;6.40;99.90
14014;DHT22;49110;52.584;13.408;2023-02-02T06:27:39;6.40;99.90
14014;DHT22;49110;52.584;13.408;2023-02-02T06:28:40;6.40;99.90
14014;DHT22;49110;52.584;13.408;2023-02-02T06:29:40;6.40;99.90
14014;DHT22;49110;52.584;13.408;2023-02-02T06:30:41;6.40;99.90
14014;DHT22;49110;52.584;13.408;2023-02-02T06:31:41;6.40;99.90
14014;DHT22;49110;52.584;13.408;2023-02-02T06:32:42;6.40;99.90
14014;DHT22;49110;52.584;13.408;2023-02-02T06:33:42;6.40;99.90
14014;DHT22;49110;52.584;13.408;2023-02-02T06:34:42;6.40;99.90
14014;DHT22;49110;52.584;13.408;2023-02-02T06:35:43;6.40;99.90
14014;DHT22;49110;52.584;13.408;2023-02-02T06:36:44;6.40;99.90
14014;DHT22;49110;52.584;13.408;2023-02-02T06:37:44;6.40;99.90
14014;DHT22;49110;52.584;13.408;2023-02-02T06:38:49;6.40;99.90
14014;DHT22;49110;52.584;13.408;2023-02-02T06:39:50;6.50;99.90
14014;DHT22;49110;52.584;13.408;2023-02-02T06:40:50;6.50;99.90
14014;DHT22;49110;52.584;13.408;2023-02-02T06:41:51;6.50;99.90
14014;DHT22;49110;52.584;13.408;2023-02-02T06:42:56;6.50;99.90
14014;DHT22;49110;52.584;13.408;2023-02-02T06:43:56;6.40;99.90
14014;DHT22;49110;52.584;13.408;2023-02-02T06:44:57;6.50;99.90
14014;DHT22;49110;52.584;13.408;2023-02-02T06:45:57;6.60;99.90
14014;DHT22;49110;52.584;13.408;2023-02-02T06:46:58;6.60;99.90
14014;DHT22;49110;52.584;13.408;2023-02-02T06:47:59;6.60;99.90
14014;DHT22;49110;52.584;13.408;2023-02-02T06:49:02;6.60;99.90
14014;DHT22;49110;52.584;13.408;2023-02-02T06:50:04;6.60;99.90
14014;DHT22;49110;52.584;13.408;2023-02-02T06:51:05;6.60;99.90
14014;DHT22;49110;52.584;13.408;2023-02-02T06:52:06;6.70;99.90
14014;DHT22;49110;52.584;13.408;2023-02-02T06:53:07;6.70;99.90
14014;DHT22;49110;52.584;13.408;2023-02-02T06:54:07;6.80;99.90
14014;DHT22;49110;52.584;13.408;2023-02-02T06:55:08;6.90;99.90
14014;DHT22;49110;52.584;13.408;2023-02-02T06:56:11;6.90;99.90
14014;DHT22;49110;52.584;13.408;2023-02-02T06:57:12;7.00;99.90
14014;DHT22;49110;52.584;13.408;2023-02-02T06:58:12;6.90;99.90
14014;DHT22;49110;52.584;13.408;2023-02-02T06:59:13;6.90;99.90
14014;DHT22;49110;52.584;13.408;2023-02-02T07:00:13;6.90;99.90
14014;DHT22;49110;52.584;13.408;2023-02-02T07:01:14;6.90;99.90
14014;DHT22;49110;52.584;13.408;2023-02-02T07:02:14;6.70;99.90
14014;DHT22;49110;52.584;13.408;2023-02-02T07:03:15;6.70;99.90
14014;DHT22;49110;52.584;13.408;2023-02-02T07:04:17;6.70;99.90
14014;DHT22;49110;52.584;13.408;2023-02-02T07:05:17;6.60;99.90
14014;DHT22;49110;52.584;13.408;2023-02-02T07:06:25;6.70;99.90
14014;DHT22;49110;52.584;13.408;2023-02-02T07:07:26;6.70;99.90
14014;DHT22;49110;52.584;13.408;2023-02-02T07:08:27;6.70;99.90
14014;DHT22;49110;52.584;13.408;2023-02-02T07:09:27;6.70;99.90
14014;DHT22;49110;52.584;13.408;2023-02-02T07:10:28;6.70;99.90
14014;DHT22;49110;52.584;13.408;2023-02-02T07:11:31;6.70;99.90
14014;DHT22;49110;52.584;13.408;2023-02-02T07:12:34;6.80;99.90
14014;DHT22;49110;52.584;13.408;2023-02-02T07:13:35;6.80;99.90
14014;DHT22;49110;52.584;13.408;2023-02-02T07:14:35;6.70;99.90
14014;DHT22;49110;52.584;13.408;2023-02-02T07:15:38;6.60;99.90
14014;DHT22;49110;52.584;13.408;2023-02-02T07:16:39;6.60;99.90
14014;DHT22;49110;52.584;13.408;2023-02-02T07:17:39;6.50;99.90
14014;DHT22;49110;52.584;13.408;2023-02-02T07:18:40;6.50;99.90
14014;DHT22;49110;52.584;13.408;2023-02-02T07:19:42;6.50;99.90
14014;DHT22;49110;52.584;13.408;2023-02-02T07:20:42;6.50;99.90
14014;DHT22;49110;52.584;13.408;2023-02-02T07:21:43;6.50;99.90
14014;DHT22;49110;52.584;13.408;2023-02-02T07:22:43;6.50;99.90
14014;DHT22;49110;52.584;13.408;2023-02-02T07:23:44;6.50;99.90
14014;DHT22;49110;52.584;13.408;2023-02-02T07:24:45;6.50;99.90
14014;DHT22;49110;52.584;13.408;2023-02-02T07:25:46;6.50;99.90
14014;DHT22;49110;52.584;13.408;2023-02-02T07:26:46;6.40;99.90
14014;DHT22;49110;52.584;13.408;2023-02-02T07:27:50;6.40;99.90
14014;DHT22;49110;52.584;13.408;2023-02-02T07:28:51;6.40;99.90
14014;DHT22;49110;52.584;13.408;2023-02-02T07:29:52;6.40;99.90
14014;DHT22;49110;52.584;13.408;2023-02-02T07:30:52;6.40;99.90
14014;DHT22;49110;52.584;13.408;2023-02-02T07:31:53;6.40;99.90
14014;DHT22;49110;52.584;13.408;2023-02-02T07:32:53;6.30;99.90
14014;DHT22;49110;52.584;13.408;2023-02-02T07:33:53;6.30;99.90
14014;DHT22;49110;52.584;13.408;2023-02-02T07:34:54;6.30;99.90
14014;DHT22;49110;52.584;13.408;2023-02-02T07:35:54;6.30;99.90
14014;DHT22;49110;52.584;13.408;2023-02-02T07:36:56;6.30;99.90
14014;DHT22;49110;52.584;13.408;2023-02-02T07:37:57;6.30;99.90
14014;DHT22;49110;52.584;13.408;2023-02-02T07:38:57;6.30;99.90
14014;DHT22;49110;52.584;13.408;2023-02-02T07:39:58;6.30;99.90
14014;DHT22;49110;52.584;13.408;2023-02-02T07:41:02;6.30;99.90
14014;DHT22;49110;52.584;13.408;2023-02-02T07:42:03;6.40;99.90
14014;DHT22;49110;52.584;13.408;2023-02-02T07:43:04;6.30;99.90
14014;DHT22;49110;52.584;13.408;2023-02-02T07:44:05;6.30;99.90
14014;DHT22;49110;52.584;13.408;2023-02-02T07:45:06;6.30;99.90
14014;DHT22;49110;52.584;13.408;2023-02-02T07:46:09;6.30;99.90
14014;DHT22;49110;52.584;13.408;2023-02-02T07:47:11;6.20;99.90
14014;DHT22;49110;52.584;13.408;2023-02-02T07:48:12;6.20;99.90
14014;DHT22;49110;52.584;13.408;2023-02-02T07:49:14;6.20;99.90
14014;DHT22;49110;52.584;13.408;2023-02-02T07:50:15;6.20;99.90
14014;DHT22;49110;52.584;13.408;2023-02-02T07:51:17;6.20;99.90
14014;DHT22;49110;52.584;13.408;2023-02-02T07:52:17;6.20;99.90
14014;DHT22;49110;52.584;13.408;2023-02-02T07:53:18;6.20;99.90
14014;DHT22;49110;52.584;13.408;2023-02-02T07:54:20;6.20;99.90
14014;DHT22;49110;52.584;13.408;2023-02-02T07:55:21;6.20;99.90
14014;DHT22;49110;52.584;13.408;2023-02-02T07:56:24;6.20;99.90
14014;DHT22;49110;52.584;13.408;2023-02-02T07:57:24;6.20;99.90
14014;DHT22;49110;52.584;13.408;2023-02-02T07:58:25;6.10;99.90
14014;DHT22;49110;52.584;13.408;2023-02-02T07:59:25;6.20;99.90
14014;DHT22;49110;52.584;13.408;2023-02-02T08:00:26;6.20;99.90
14014;DHT22;49110;52.584;13.408;2023-02-02T08:01:27;6.20;99.90
14014;DHT22;49110;52.584;13.408;2023-02-02T08:02:27;6.20;99.90
14014;DHT22;49110;52.584;13.408;2023-02-02T08:03:28;6.30;99.90
14014;DHT22;49110;52.584;13.408;2023-02-02T08:04:28;6.30;99.90
14014;DHT22;49110;52.584;13.408;2023-02-02T08:05:29;6.30;99.90
14014;DHT22;49110;52.584;13.408;2023-02-02T08:06:33;6.30;99.90
14014;DHT22;49110;52.584;13.408;2023-02-02T08:07:34;6.30;99.90
14014;DHT22;49110;52.584;13.408;2023-02-02T08:08:35;6.30;99.90
14014;DHT22;49110;52.584;13.408;2023-02-02T08:09:35;6.30;99.90
14014;DHT22;49110;52.584;13.408;2023-02-02T08:10:36;6.30;99.90
14014;DHT22;49110;52.584;13.408;2023-02-02T08:11:37;6.40;99.90
14014;DHT22;49110;52.584;13.408;2023-02-02T08:12:38;6.40;99.90
14014;DHT22;49110;52.584;13.408;2023-02-02T08:13:39;6.50;99.90
14014;DHT22;49110;52.584;13.408;2023-02-02T08:14:39;6.60;99.90
14014;DHT22;49110;52.584;13.408;2023-02-02T08:15:40;6.60;99.90
14014;DHT22;49110;52.584;13.408;2023-02-02T08:16:40;6.70;99.90
14014;DHT22;49110;52.584;13.408;2023-02-02T08:17:44;6.70;99.90
14014;DHT22;49110;52.584;13.408;2023-02-02T08:18:45;6.70;99.90
14014;DHT22;49110;52.584;13.408;2023-02-02T08:19:46;6.70;99.90
14014;DHT22;49110;52.584;13.408;2023-02-02T08:20:46;6.80;99.90
14014;DHT22;49110;52.584;13.408;2023-02-02T08:21:48;6.80;99.90
14014;DHT22;49110;52.584;13.408;2023-02-02T08:22:49;6.70;99.90
14014;DHT22;49110;52.584;13.408;2023-02-02T08:23:51;6.70;99.90
14014;DHT22;49110;52.584;13.408;2023-02-02T08:24:51;6.70;99.90
14014;DHT22;49110;52.584;13.408;2023-02-02T08:25:52;6.70;99.90
14014;DHT22;49110;52.584;13.408;2023-02-02T08:26:53;6.70;99.90
14014;DHT22;49110;52.584;13.408;2023-02-02T08:27:54;6.80;99.90
14014;DHT22;49110;52.584;13.408;2023-02-02T08:29:00;6.80;99.90
14014;DHT22;49110;52.584;13.408;2023-02-02T08:30:01;6.80;99.90
14014;DHT22;49110;52.584;13.408;2023-02-02T08:31:26;6.80;99.90
14014;DHT22;49110;52.584;13.408;2023-02-02T08:32:26;6.80;99.90
14014;DHT22;49110;52.584;13.408;2023-02-02T08:33:26;6.80;99.90
14014;DHT22;49110;52.584;13.408;2023-02-02T08:34:27;6.80;99.90
14014;DHT22;49110;52.584;13.408;2023-02-02T08:35:27;6.80;99.90
14014;DHT22;49110;52.584;13.408;2023-02-02T08:36:29;6.70;99.90
14014;DHT22;49110;52.584;13.408;2023-02-02T08:37:30;6.60;99.90
14014;DHT22;49110;52.584;13.408;2023-02-02T08:38:30;6.60;99.90
14014;DHT22;49110;52.584;13.408;2023-02-02T08:39:31;6.60;99.90
14014;DHT22;49110;52.584;13.408;2023-02-02T08:40:31;6.60;99.90
14014;DHT22;49110;52.584;13.408;2023-02-02T08:41:33;6.50;99.90
14014;DHT22;49110;52.584;13.408;2023-02-02T08:42:36;6.50;99.90
14014;DHT22;49110;52.584;13.408;2023-02-02T08:43:36;6.60;99.90
14014;DHT22;49110;52.584;13.408;2023-02-02T08:44:36;6.70;99.90
14014;DHT22;49110;52.584;13.408;2023-02-02T08:45:41;6.70;99.90
14014;DHT22;49110;52.584;13.408;2023-02-02T08:46:42;6.70;99.90
14014;DHT22;49110;52.584;13.408;2023-02-02T08:47:42;6.70;99.90
14014;DHT22;49110;52.584;13.408;2023-02-02T08:48:43;6.70;99.90
14014;DHT22;49110;52.584;13.408;2023-02-02T08:49:44;6.70;99.90
14014;DHT22;49110;52.584;13.408;2023-02-02T08:50:54;6.80;99.90
14014;DHT22;49110;52.584;13.408;2023-02-02T08:51:55;6.80;99.90
14014;DHT22;49110;52.584;13.408;2023-02-02T08:52:55;6.80;99.90
14014;DHT22;49110;52.584;13.408;2023-02-02T08:53:56;6.80;99.90
14014;DHT22;49110;52.584;13.408;2023-02-02T08:54:57;6.80;99.90
14014;DHT22;49110;52.584;13.408;2023-02-02T08:56:05;6.80;99.90
14014;DHT22;49110;52.584;13.408;2023-02-02T08:57:06;6.80;99.90
14014;DHT22;49110;52.584;13.408;2023-02-02T08:58:07;6.80;99.90
14014;DHT22;49110;52.584;13.408;2023-02-02T08:59:09;6.80;99.90
14014;DHT22;49110;52.584;13.408;2023-02-02T09:00:10;6.80;99.90
14014;DHT22;49110;52.584;13.408;2023-02-02T09:01:14;6.90;99.90
14014;DHT22;49110;52.584;13.408;2023-02-02T09:02:15;6.90;99.90
14014;DHT22;49110;52.584;13.408;2023-02-02T09:03:17;7.00;99.90
14014;DHT22;49110;52.584;13.408;2023-02-02T09:04:17;7.10;99.90
14014;DHT22;49110;52.584;13.408;2023-02-02T09:05:18;7.20;99.90
14014;DHT22;49110;52.584;13.408;2023-02-02T09:06:19;7.20;99.90
14014;DHT22;49110;52.584;13.408;2023-02-02T09:07:19;7.20;99.90
14014;DHT22;49110;52.584;13.408;2023-02-02T09:08:20;7.20;99.90
14014;DHT22;49110;52.584;13.408;2023-02-02T09:09:21;7.20;99.90
14014;DHT22;49110;52.584;13.408;2023-02-02T09:10:21;7.20;99.90
14014;DHT22;49110;52.584;13.408;2023-02-02T09:11:22;7.20;99.90
14014;DHT22;49110;52.584;13.408;2023-02-02T09:12:23;7.20;99.90
14014;DHT22;49110;52.584;13.408;2023-02-02T09:13:24;7.10;99.90
14014;DHT22;49110;52.584;13.408;2023-02-02T09:14:24;7.10;99.90
14014;DHT22;49110;52.584;13.408;2023-02-02T09:15:25;7.10;99.90
14014;DHT22;49110;52.584;13.408;2023-02-02T09:16:26;7.10;99.90
14014;DHT22;49110;52.584;13.408;2023-02-02T09:17:27;7.00;99.90
14014;DHT22;49110;52.584;13.408;2023-02-02T09:18:29;7.00;99.90
14014;DHT22;49110;52.584;13.408;2023-02-02T09:19:29;7.00;99.90
14014;DHT22;49110;52.584;13.408;2023-02-02T09:20:30;7.00;99.90
14014;DHT22;49110;52.584;13.408;2023-02-02T09:21:31;7.00;99.90
14014;DHT22;49110;52.584;13.408;2023-02-02T09:22:36;7.10;99.90
14014;DHT22;49110;52.584;13.408;2023-02-02T09:23:38;7.10;99.90
14014;DHT22;49110;52.584;13.408;2023-02-02T09:24:39;7.10;99.90
14014;DHT22;49110;52.584;13.408;2023-02-02T09:25:39;7.20;99.90
14014;DHT22;49110;52.584;13.408;2023-02-02T09:26:41;7.10;99.90
14014;DHT22;49110;52.584;13.408;2023-02-02T09:27:41;7.10;99.90
14014;DHT22;49110;52.584;13.408;2023-02-02T09:28:45;7.10;99.90
14014;DHT22;49110;52.584;13.408;2023-02-02T09:29:46;7.10;99.90
14014;DHT22;49110;52.584;13.408;2023-02-02T09:30:47;7.20;99.90
14014;DHT22;49110;52.584;13.408;2023-02-02T09:31:48;7.10;99.90
14014;DHT22;49110;52.584;13.408;2023-02-02T09:32:49;7.20;99.90
14014;DHT22;49110;52.584;13.408;2023-02-02T09:33:50;7.20;99.90
14014;DHT22;49110;52.584;13.408;2023-02-02T09:34:51;7.30;99.90
14014;DHT22;49110;52.584;13.408;2023-02-02T09:35:51;7.30;99.90
14014;DHT22;49110;52.584;13.408;2023-02-02T09:36:52;7.40;99.90
14014;DHT22;49110;52.584;13.408;2023-02-02T09:37:53;7.40;99.90
14014;DHT22;49110;52.584;13.408;2023-02-02T09:38:54;7.40;99.90
14014;DHT22;49110;52.584;13.408;2023-02-02T09:39:54;7.30;99.90
14014;DHT22;49110;52.584;13.408;2023-02-02T09:40:55;7.40;99.90
14014;DHT22;49110;52.584;13.408;2023-02-02T09:43:26;7.40;99.90
14014;DHT22;49110;52.584;13.408;2023-02-02T09:44:53;7.40;99.90
14014;DHT22;49110;52.584;13.408;2023-02-02T09:46:07;7.50;99.90
14014;DHT22;49110;52.584;13.408;2023-02-02T09:47:17;7.60;99.90
14014;DHT22;49110;52.584;13.408;2023-02-02T09:49:38;7.50;99.90
14014;DHT22;49110;52.584;13.408;2023-02-02T09:50:49;7.50;99.90
14014;DHT22;49110;52.584;13.408;2023-02-02T09:51:56;7.40;99.90
14014;DHT22;49110;52.584;13.408;2023-02-02T09:53:31;7.40;99.90
14014;DHT22;49110;52.584;13.408;2023-02-02T09:54:45;7.30;99.90
14014;DHT22;49110;52.584;13.408;2023-02-02T09:55:49;7.30;99.90
14014;DHT22;49110;52.584;13.408;2023-02-02T09:56:53;7.30;99.90
14014;DHT22;49110;52.584;13.408;2023-02-02T09:58:21;7.30;99.90
14014;DHT22;49110;52.584;13.408;2023-02-02T09:59:26;7.30;99.90
14014;DHT22;49110;52.584;13.408;2023-02-02T10:00:38;7.40;99.90
14014;DHT22;49110;52.584;13.408;2023-02-02T10:01:42;7.40;99.90
14014;DHT22;49110;52.584;13.408;2023-02-02T10:02:45;7.30;99.90
14014;DHT22;49110;52.584;13.408;2023-02-02T10:04:11;7.30;99.90
14014;DHT22;49110;52.584;13.408;2023-02-02T10:05:16;7.20;99.90
14014;DHT22;49110;52.584;13.408;2023-02-02T10:06:40;7.30;99.90
14014;DHT22;49110;52.584;13.408;2023-02-02T10:07:44;7.30;99.90
14014;DHT22;49110;52.584;13.408;2023-02-02T10:08:51;7.30;99.90
14014;DHT22;49110;52.584;13.408;2023-02-02T10:09:58;7.30;99.90
14014;DHT22;49110;52.584;13.408;2023-02-02T10:11:03;7.20;99.90
14014;DHT22;49110;52.584;13.408;2023-02-02T10:13:32;7.20;99.90
14014;DHT22;49110;52.584;13.408;2023-02-02T10:14:44;7.20;99.90
14014;DHT22;49110;52.584;13.408;2023-02-02T10:17:33;7.20;99.90
14014;DHT22;49110;52.584;13.408;2023-02-02T10:18:54;7.20;99.90
14014;DHT22;49110;52.584;13.408;2023-02-02T10:20:02;7.20;99.90
14014;DHT22;49110;52.584;13.408;2023-02-02T10:21:19;7.10;99.90
14014;DHT22;49110;52.584;13.408;2023-02-02T10:22:26;7.00;99.90
14014;DHT22;49110;52.584;13.408;2023-02-02T10:23:31;7.00;99.90
14014;DHT22;49110;52.584;13.408;2023-02-02T10:24:32;7.00;99.90
14014;DHT22;49110;52.584;13.408;2023-02-02T10:25:35;6.90;99.90
14014;DHT22;49110;52.584;13.408;2023-02-02T10:26:38;7.00;99.90
14014;DHT22;49110;52.584;13.408;2023-02-02T10:27:45;7.00;99.90
14014;DHT22;49110;52.584;13.408;2023-02-02T10:30:19;7.20;99.90
14014;DHT22;49110;52.584;13.408;2023-02-02T10:31:48;7.20;99.90
14014;DHT22;49110;52.584;13.408;2023-02-02T10:33:09;7.30;99.90
14014;DHT22;49110;52.584;13.408;2023-02-02T10:34:40;7.40;99.90
14014;DHT22;49110;52.584;13.408;2023-02-02T10:35:54;7.60;99.90
14014;DHT22;49110;52.584;13.408;2023-02-02T10:37:21;7.60;99.40
14014;DHT22;49110;52.584;13.408;2023-02-02T10:38:30;7.60;99.30
14014;DHT22;49110;52.584;13.408;2023-02-02T10:39:55;7.60;99.10
14014;DHT22;49110;52.584;13.408;2023-02-02T10:41:22;7.60;98.90
14014;DHT22;49110;52.584;13.408;2023-02-02T10:42:33;7.60;98.70
14014;DHT22;49110;52.584;13.408;2023-02-02T10:44:06;7.60;97.90
14014;DHT22;49110;52.584;13.408;2023-02-02T10:45:14;7.60;98.10
14014;DHT22;49110;52.584;13.408;2023-02-02T10:46:27;7.70;98.40
14014;DHT22;49110;52.584;13.408;2023-02-02T10:47:31;7.70;98.40
14014;DHT22;49110;52.584;13.408;2023-02-02T10:48:34;7.60;97.70
14014;DHT22;49110;52.584;13.408;2023-02-02T10:49:36;7.60;97.90
14014;DHT22;49110;52.584;13.408;2023-02-02T10:50:37;7.50;97.60
14014;DHT22;49110;52.584;13.408;2023-02-02T10:51:48;7.50;97.40
14014;DHT22;49110;52.584;13.408;2023-02-02T10:52:55;7.50;97.60
14014;DHT22;49110;52.584;13.408;2023-02-02T10:54:00;7.50;97.60
14014;DHT22;49110;52.584;13.408;2023-02-02T10:55:15;7.60;98.10
14014;DHT22;49110;52.584;13.408;2023-02-02T10:56:29;7.70;98.30
14014;DHT22;49110;52.584;13.408;2023-02-02T10:59:18;7.70;97.40
14014;DHT22;49110;52.584;13.408;2023-02-02T11:01:45;7.60;96.90
14014;DHT22;49110;52.584;13.408;2023-02-02T11:02:48;7.50;96.60
14014;DHT22;49110;52.584;13.408;2023-02-02T11:03:49;7.50;97.00
14014;DHT22;49110;52.584;13.408;2023-02-02T11:05:23;7.60;98.00
14014;DHT22;49110;52.584;13.408;2023-02-02T11:06:43;7.60;97.30
14014;DHT22;49110;52.584;13.408;2023-02-02T11:07:52;7.50;97.50
14014;DHT22;49110;52.584;13.408;2023-02-02T11:08:54;7.50;97.40
14014;DHT22;49110;52.584;13.408;2023-02-02T11:09:59;7.60;97.70
14014;DHT22;49110;52.584;13.408;2023-02-02T11:12:33;7.80;97.60
14014;DHT22;49110;52.584;13.408;2023-02-02T11:13:40;7.90;97.30
14014;DHT22;49110;52.584;13.408;2023-02-02T11:14:58;7.90;97.20